sensor_id;sensor_type;location;lat;lon;timestamp;P1;durP1;ratioP1;P2;durP2;ratioP2
29168;SDS011;16219;42.864;23.360;2022-11-02T00:00:14;5.18;;;1.58;;
29168;SDS011;16219;42.864;23.360;2022-11-02T00:02:41;5.18;;;2.42;;
29168;SDS011;16219;42.864;23.360;2022-11-02T00:05:10;5.88;;;2.20;;
29168;SDS011;16219;42.864;23.360;2022-11-02T00:07:38;3.00;;;2.42;;
29168;SDS011;16219;42.864;23.360;2022-11-02T00:10:06;3.33;;;2.42;;
29168;SDS011;16219;42.864;23.360;2022-11-02T00:12:34;3.42;;;2.42;;
29168;SDS011;16219;42.864;23.360;2022-11-02T00:15:01;2.80;;;2.33;;
29168;SDS011;16219;42.864;23.360;2022-11-02T00:17:30;2.33;;;2.13;;
29168;SDS011;16219;42.864;23.360;2022-11-02T00:19:57;2.88;;;2.00;;
29168;SDS011;16219;42.864;23.360;2022-11-02T00:22:25;2.60;;;1.88;;
29168;SDS011;16219;42.864;23.360;2022-11-02T00:24:52;2.88;;;1.85;;
29168;SDS011;16219;42.864;23.360;2022-11-02T00:27:19;1.75;;;1.65;;
29168;SDS011;16219;42.864;23.360;2022-11-02T00:29:48;3.92;;;2.55;;
29168;SDS011;16219;42.864;23.360;2022-11-02T00:32:15;2.53;;;2.33;;
29168;SDS011;16219;42.864;23.360;2022-11-02T00:34:44;2.25;;;1.73;;
29168;SDS011;16219;42.864;23.360;2022-11-02T00:37:11;3.85;;;2.15;;
29168;SDS011;16219;42.864;23.360;2022-11-02T00:39:38;1.75;;;1.52;;
29168;SDS011;16219;42.864;23.360;2022-11-02T00:42:05;2.40;;;1.92;;
29168;SDS011;16219;42.864;23.360;2022-11-02T00:44:32;1.88;;;1.55;;
29168;SDS011;16219;42.864;23.360;2022-11-02T00:46:59;1.73;;;1.63;;
29168;SDS011;16219;42.864;23.360;2022-11-02T00:49:26;2.90;;;1.88;;
29168;SDS011;16219;42.864;23.360;2022-11-02T00:51:55;1.83;;;1.48;;
29168;SDS011;16219;42.864;23.360;2022-11-02T00:54:24;1.52;;;1.42;;
29168;SDS011;16219;42.864;23.360;2022-11-02T00:56:53;3.63;;;3.20;;
29168;SDS011;16219;42.864;23.360;2022-11-02T00:59:20;8.20;;;2.60;;
29168;SDS011;16219;42.864;23.360;2022-11-02T01:01:47;6.78;;;2.88;;
29168;SDS011;16219;42.864;23.360;2022-11-02T01:04:15;7.53;;;2.67;;
29168;SDS011;16219;42.864;23.360;2022-11-02T01:06:43;2.92;;;2.10;;
29168;SDS011;16219;42.864;23.360;2022-11-02T01:09:12;1.98;;;1.65;;
29168;SDS011;16219;42.864;23.360;2022-11-02T01:11:40;1.90;;;1.65;;
29168;SDS011;16219;42.864;23.360;2022-11-02T01:14:13;1.90;;;1.80;;
29168;SDS011;16219;42.864;23.360;2022-11-02T01:16:40;2.38;;;2.17;;
29168;SDS011;16219;42.864;23.360;2022-11-02T01:19:09;2.40;;;1.85;;
29168;SDS011;16219;42.864;23.360;2022-11-02T01:21:36;2.92;;;2.45;;
29168;SDS011;16219;42.864;23.360;2022-11-02T01:24:03;1.45;;;1.35;;
29168;SDS011;16219;42.864;23.360;2022-11-02T01:26:32;1.13;;;1.13;;
29168;SDS011;16219;42.864;23.360;2022-11-02T01:28:59;3.97;;;1.98;;
29168;SDS011;16219;42.864;23.360;2022-11-02T01:31:26;3.80;;;1.75;;
29168;SDS011;16219;42.864;23.360;2022-11-02T01:33:53;1.45;;;1.27;;
29168;SDS011;16219;42.864;23.360;2022-11-02T01:36:20;2.25;;;1.75;;
29168;SDS011;16219;42.864;23.360;2022-11-02T01:38:50;2.08;;;1.90;;
29168;SDS011;16219;42.864;23.360;2022-11-02T01:41:19;1.92;;;1.77;;
29168;SDS011;16219;42.864;23.360;2022-11-02T01:43:50;7.22;;;3.03;;
29168;SDS011;16219;42.864;23.360;2022-11-02T01:46:20;1.33;;;1.17;;
29168;SDS011;16219;42.864;23.360;2022-11-02T01:48:51;2.35;;;2.08;;
29168;SDS011;16219;42.864;23.360;2022-11-02T01:51:24;3.17;;;1.27;;
29168;SDS011;16219;42.864;23.360;2022-11-02T01:53:55;1.83;;;1.65;;
29168;SDS011;16219;42.864;23.360;2022-11-02T01:56:24;2.30;;;2.13;;
29168;SDS011;16219;42.864;23.360;2022-11-02T01:58:58;2.10;;;2.00;;
29168;SDS011;16219;42.864;23.360;2022-11-02T02:01:29;2.03;;;1.83;;
29168;SDS011;16219;42.864;23.360;2022-11-02T02:03:57;2.75;;;2.22;;
29168;SDS011;16219;42.864;23.360;2022-11-02T02:06:26;1.80;;;1.67;;
29168;SDS011;16219;42.864;23.360;2022-11-02T02:08:54;3.40;;;1.63;;
29168;SDS011;16219;42.864;23.360;2022-11-02T02:11:29;2.30;;;1.75;;
29168;SDS011;16219;42.864;23.360;2022-11-02T02:13:59;1.75;;;1.65;;
29168;SDS011;16219;42.864;23.360;2022-11-02T02:16:46;2.33;;;1.50;;
29168;SDS011;16219;42.864;23.360;2022-11-02T02:19:31;4.32;;;2.05;;
29168;SDS011;16219;42.864;23.360;2022-11-02T02:22:15;1.35;;;1.25;;
29168;SDS011;16219;42.864;23.360;2022-11-02T02:24:56;1.75;;;1.45;;
29168;SDS011;16219;42.864;23.360;2022-11-02T02:27:43;2.28;;;2.10;;
29168;SDS011;16219;42.864;23.360;2022-11-02T02:30:21;5.47;;;2.42;;
29168;SDS011;16219;42.864;23.360;2022-11-02T02:32:52;16.33;;;1.80;;
29168;SDS011;16219;42.864;23.360;2022-11-02T02:35:25;2.33;;;2.13;;
29168;SDS011;16219;42.864;23.360;2022-11-02T02:37:56;2.88;;;2.00;;
29168;SDS011;16219;42.864;23.360;2022-11-02T02:40:29;3.28;;;1.50;;
29168;SDS011;16219;42.864;23.360;2022-11-02T02:43:02;1.33;;;1.23;;
29168;SDS011;16219;42.864;23.360;2022-11-02T02:45:34;4.50;;;2.83;;
29168;SDS011;16219;42.864;23.360;2022-11-02T02:48:05;2.00;;;1.27;;
29168;SDS011;16219;42.864;23.360;2022-11-02T02:50:39;4.28;;;2.05;;
29168;SDS011;16219;42.864;23.360;2022-11-02T02:53:11;1.80;;;1.55;;
29168;SDS011;16219;42.864;23.360;2022-11-02T02:55:41;2.78;;;1.75;;
29168;SDS011;16219;42.864;23.360;2022-11-02T02:58:14;1.98;;;1.85;;
29168;SDS011;16219;42.864;23.360;2022-11-02T03:00:45;4.90;;;2.65;;
29168;SDS011;16219;42.864;23.360;2022-11-02T03:03:14;4.20;;;2.28;;
29168;SDS011;16219;42.864;23.360;2022-11-02T03:05:52;1.88;;;1.67;;
29168;SDS011;16219;42.864;23.360;2022-11-02T03:08:25;2.25;;;2.05;;
29168;SDS011;16219;42.864;23.360;2022-11-02T03:10:54;7.32;;;1.60;;
29168;SDS011;16219;42.864;23.360;2022-11-02T03:13:36;1.58;;;1.50;;
29168;SDS011;16219;42.864;23.360;2022-11-02T03:16:10;2.00;;;1.48;;
29168;SDS011;16219;42.864;23.360;2022-11-02T03:18:52;2.28;;;1.95;;
29168;SDS011;16219;42.864;23.360;2022-11-02T03:21:27;1.55;;;1.45;;
29168;SDS011;16219;42.864;23.360;2022-11-02T03:24:02;1.85;;;1.63;;
29168;SDS011;16219;42.864;23.360;2022-11-02T03:26:37;1.63;;;1.53;;
29168;SDS011;16219;42.864;23.360;2022-11-02T03:29:13;4.47;;;1.70;;
29168;SDS011;16219;42.864;23.360;2022-11-02T03:31:48;2.88;;;2.25;;
29168;SDS011;16219;42.864;23.360;2022-11-02T03:34:22;3.17;;;1.67;;
29168;SDS011;16219;42.864;23.360;2022-11-02T03:36:57;2.05;;;1.95;;
29168;SDS011;16219;42.864;23.360;2022-11-02T03:39:32;3.33;;;2.00;;
29168;SDS011;16219;42.864;23.360;2022-11-02T03:42:03;4.57;;;2.50;;
29168;SDS011;16219;42.864;23.360;2022-11-02T03:44:37;1.67;;;1.55;;
29168;SDS011;16219;42.864;23.360;2022-11-02T03:47:08;3.40;;;2.25;;
29168;SDS011;16219;42.864;23.360;2022-11-02T03:49:39;1.88;;;1.42;;
29168;SDS011;16219;42.864;23.360;2022-11-02T03:52:09;3.05;;;1.33;;
29168;SDS011;16219;42.864;23.360;2022-11-02T03:54:42;2.20;;;1.67;;
29168;SDS011;16219;42.864;23.360;2022-11-02T03:57:17;2.78;;;2.20;;
29168;SDS011;16219;42.864;23.360;2022-11-02T03:59:51;2.33;;;1.77;;
29168;SDS011;16219;42.864;23.360;2022-11-02T04:02:18;12.43;;;3.08;;
29168;SDS011;16219;42.864;23.360;2022-11-02T04:04:47;3.58;;;2.22;;
29168;SDS011;16219;42.864;23.360;2022-11-02T04:07:16;2.00;;;1.80;;
29168;SDS011;16219;42.864;23.360;2022-11-02T04:09:47;3.03;;;1.70;;
29168;SDS011;16219;42.864;23.360;2022-11-02T04:12:16;2.30;;;1.95;;
29168;SDS011;16219;42.864;23.360;2022-11-02T04:15:02;9.13;;;3.05;;
29168;SDS011;16219;42.864;23.360;2022-11-02T04:17:30;3.25;;;2.63;;
29168;SDS011;16219;42.864;23.360;2022-11-02T04:20:16;3.78;;;1.52;;
29168;SDS011;16219;42.864;23.360;2022-11-02T04:22:43;1.02;;;1.02;;
29168;SDS011;16219;42.864;23.360;2022-11-02T04:25:27;2.92;;;2.35;;
29168;SDS011;16219;42.864;23.360;2022-11-02T04:28:06;7.30;;;1.90;;
29168;SDS011;16219;42.864;23.360;2022-11-02T04:31:01;1.50;;;1.40;;
29168;SDS011;16219;42.864;23.360;2022-11-02T04:33:34;4.10;;;2.67;;
29168;SDS011;16219;42.864;23.360;2022-11-02T04:36:12;2.15;;;1.95;;
29168;SDS011;16219;42.864;23.360;2022-11-02T04:38:40;1.52;;;1.40;;
29168;SDS011;16219;42.864;23.360;2022-11-02T04:41:24;13.30;;;2.50;;
29168;SDS011;16219;42.864;23.360;2022-11-02T04:44:18;2.67;;;2.40;;
29168;SDS011;16219;42.864;23.360;2022-11-02T04:46:55;1.90;;;1.80;;
29168;SDS011;16219;42.864;23.360;2022-11-02T04:49:25;2.38;;;1.88;;
29168;SDS011;16219;42.864;23.360;2022-11-02T04:51:53;2.17;;;1.55;;
29168;SDS011;16219;42.864;23.360;2022-11-02T04:54:20;2.08;;;1.63;;
29168;SDS011;16219;42.864;23.360;2022-11-02T04:56:53;3.08;;;2.33;;
29168;SDS011;16219;42.864;23.360;2022-11-02T04:59:22;2.60;;;2.05;;
29168;SDS011;16219;42.864;23.360;2022-11-02T05:01:50;3.20;;;2.17;;
29168;SDS011;16219;42.864;23.360;2022-11-02T05:04:18;2.30;;;1.90;;
29168;SDS011;16219;42.864;23.360;2022-11-02T05:06:48;4.90;;;1.83;;
29168;SDS011;16219;42.864;23.360;2022-11-02T05:09:16;1.80;;;1.70;;
29168;SDS011;16219;42.864;23.360;2022-11-02T05:11:46;1.25;;;1.15;;
29168;SDS011;16219;42.864;23.360;2022-11-02T05:14:14;1.63;;;1.52;;
29168;SDS011;16219;42.864;23.360;2022-11-02T05:16:41;1.17;;;1.17;;
29168;SDS011;16219;42.864;23.360;2022-11-02T05:19:09;1.33;;;1.23;;
29168;SDS011;16219;42.864;23.360;2022-11-02T05:21:39;1.70;;;1.60;;
29168;SDS011;16219;42.864;23.360;2022-11-02T05:24:06;2.40;;;1.77;;
29168;SDS011;16219;42.864;23.360;2022-11-02T05:26:34;4.63;;;2.42;;
29168;SDS011;16219;42.864;23.360;2022-11-02T05:29:02;1.55;;;1.45;;
29168;SDS011;16219;42.864;23.360;2022-11-02T05:31:30;11.20;;;2.30;;
29168;SDS011;16219;42.864;23.360;2022-11-02T05:33:57;3.70;;;2.28;;
29168;SDS011;16219;42.864;23.360;2022-11-02T05:36:24;5.95;;;3.33;;
29168;SDS011;16219;42.864;23.360;2022-11-02T05:38:53;1.55;;;1.45;;
29168;SDS011;16219;42.864;23.360;2022-11-02T05:41:21;1.85;;;1.73;;
29168;SDS011;16219;42.864;23.360;2022-11-02T05:43:52;1.48;;;1.38;;
29168;SDS011;16219;42.864;23.360;2022-11-02T05:46:20;13.05;;;1.80;;
29168;SDS011;16219;42.864;23.360;2022-11-02T05:48:47;2.63;;;2.20;;
29168;SDS011;16219;42.864;23.360;2022-11-02T05:51:15;2.30;;;1.45;;
29168;SDS011;16219;42.864;23.360;2022-11-02T05:53:42;1.17;;;1.10;;
29168;SDS011;16219;42.864;23.360;2022-11-02T05:56:10;2.72;;;1.92;;
29168;SDS011;16219;42.864;23.360;2022-11-02T05:58:38;9.40;;;2.00;;
29168;SDS011;16219;42.864;23.360;2022-11-02T06:01:06;3.10;;;2.28;;
29168;SDS011;16219;42.864;23.360;2022-11-02T06:03:34;1.40;;;1.30;;
29168;SDS011;16219;42.864;23.360;2022-11-02T06:06:02;3.08;;;1.65;;
29168;SDS011;16219;42.864;23.360;2022-11-02T06:08:31;1.15;;;1.15;;
29168;SDS011;16219;42.864;23.360;2022-11-02T06:11:02;7.38;;;1.60;;
29168;SDS011;16219;42.864;23.360;2022-11-02T06:13:31;4.03;;;1.42;;
29168;SDS011;16219;42.864;23.360;2022-11-02T06:15:58;3.33;;;2.35;;
29168;SDS011;16219;42.864;23.360;2022-11-02T06:18:27;2.20;;;2.05;;
29168;SDS011;16219;42.864;23.360;2022-11-02T06:20:55;2.45;;;2.05;;
29168;SDS011;16219;42.864;23.360;2022-11-02T06:23:23;2.00;;;1.77;;
29168;SDS011;16219;42.864;23.360;2022-11-02T06:25:50;2.15;;;1.83;;
29168;SDS011;16219;42.864;23.360;2022-11-02T06:28:17;5.03;;;3.70;;
29168;SDS011;16219;42.864;23.360;2022-11-02T06:30:46;2.92;;;2.58;;
29168;SDS011;16219;42.864;23.360;2022-11-02T06:33:14;3.58;;;2.60;;
29168;SDS011;16219;42.864;23.360;2022-11-02T06:35:43;6.53;;;2.88;;
29168;SDS011;16219;42.864;23.360;2022-11-02T06:38:11;5.43;;;2.85;;
29168;SDS011;16219;42.864;23.360;2022-11-02T06:40:38;7.07;;;4.22;;
29168;SDS011;16219;42.864;23.360;2022-11-02T06:43:06;4.95;;;2.58;;
29168;SDS011;16219;42.864;23.360;2022-11-02T06:45:33;2.25;;;2.05;;
29168;SDS011;16219;42.864;23.360;2022-11-02T06:48:02;3.28;;;2.65;;
29168;SDS011;16219;42.864;23.360;2022-11-02T06:50:29;6.50;;;3.33;;
29168;SDS011;16219;42.864;23.360;2022-11-02T06:52:56;6.70;;;1.60;;
29168;SDS011;16219;42.864;23.360;2022-11-02T06:55:23;2.72;;;2.53;;
29168;SDS011;16219;42.864;23.360;2022-11-02T06:57:50;2.63;;;2.42;;
29168;SDS011;16219;42.864;23.360;2022-11-02T07:00:18;7.25;;;2.10;;
29168;SDS011;16219;42.864;23.360;2022-11-02T07:02:45;8.90;;;5.53;;
29168;SDS011;16219;42.864;23.360;2022-11-02T07:05:25;2.35;;;2.15;;
29168;SDS011;16219;42.864;23.360;2022-11-02T07:07:52;10.05;;;2.88;;
29168;SDS011;16219;42.864;23.360;2022-11-02T07:10:19;7.85;;;2.92;;
29168;SDS011;16219;42.864;23.360;2022-11-02T07:12:46;11.35;;;4.15;;
29168;SDS011;16219;42.864;23.360;2022-11-02T07:15:16;6.43;;;4.65;;
29168;SDS011;16219;42.864;23.360;2022-11-02T07:17:44;8.10;;;5.15;;
29168;SDS011;16219;42.864;23.360;2022-11-02T07:20:11;21.85;;;5.97;;
29168;SDS011;16219;42.864;23.360;2022-11-02T07:22:39;7.63;;;5.40;;
29168;SDS011;16219;42.864;23.360;2022-11-02T07:25:07;10.80;;;5.80;;
29168;SDS011;16219;42.864;23.360;2022-11-02T07:27:36;8.90;;;5.07;;
29168;SDS011;16219;42.864;23.360;2022-11-02T07:30:05;10.38;;;7.53;;
29168;SDS011;16219;42.864;23.360;2022-11-02T07:32:37;5.70;;;4.80;;
29168;SDS011;16219;42.864;23.360;2022-11-02T07:35:06;9.20;;;6.05;;
29168;SDS011;16219;42.864;23.360;2022-11-02T07:37:34;14.20;;;5.32;;
29168;SDS011;16219;42.864;23.360;2022-11-02T07:40:03;9.02;;;4.43;;
29168;SDS011;16219;42.864;23.360;2022-11-02T07:42:31;10.50;;;4.40;;
29168;SDS011;16219;42.864;23.360;2022-11-02T07:44:59;2.33;;;2.13;;
29168;SDS011;16219;42.864;23.360;2022-11-02T07:47:26;3.03;;;2.72;;
29168;SDS011;16219;42.864;23.360;2022-11-02T07:49:54;10.18;;;3.80;;
29168;SDS011;16219;42.864;23.360;2022-11-02T07:52:23;3.45;;;2.67;;
29168;SDS011;16219;42.864;23.360;2022-11-02T07:54:50;6.68;;;2.75;;
29168;SDS011;16219;42.864;23.360;2022-11-02T07:57:20;4.78;;;2.97;;
29168;SDS011;16219;42.864;23.360;2022-11-02T07:59:47;3.58;;;2.15;;
29168;SDS011;16219;42.864;23.360;2022-11-02T08:02:14;2.42;;;1.85;;
29168;SDS011;16219;42.864;23.360;2022-11-02T08:04:42;1.10;;;1.10;;
29168;SDS011;16219;42.864;23.360;2022-11-02T08:07:09;2.92;;;2.28;;
29168;SDS011;16219;42.864;23.360;2022-11-02T08:09:37;3.28;;;1.92;;
29168;SDS011;16219;42.864;23.360;2022-11-02T08:12:04;2.63;;;2.42;;
29168;SDS011;16219;42.864;23.360;2022-11-02T08:14:33;4.07;;;3.13;;
29168;SDS011;16219;42.864;23.360;2022-11-02T08:17:00;5.43;;;2.85;;
29168;SDS011;16219;42.864;23.360;2022-11-02T08:19:27;4.28;;;2.97;;
29168;SDS011;16219;42.864;23.360;2022-11-02T08:21:54;7.40;;;3.00;;
29168;SDS011;16219;42.864;23.360;2022-11-02T08:24:22;2.95;;;2.17;;
29168;SDS011;16219;42.864;23.360;2022-11-02T08:26:49;4.65;;;1.73;;
29168;SDS011;16219;42.864;23.360;2022-11-02T08:29:17;5.65;;;2.60;;
29168;SDS011;16219;42.864;23.360;2022-11-02T08:31:45;6.07;;;1.45;;
29168;SDS011;16219;42.864;23.360;2022-11-02T08:34:13;2.53;;;2.25;;
29168;SDS011;16219;42.864;23.360;2022-11-02T08:36:40;3.50;;;2.38;;
29168;SDS011;16219;42.864;23.360;2022-11-02T08:39:08;3.33;;;2.47;;
29168;SDS011;16219;42.864;23.360;2022-11-02T08:41:35;1.48;;;1.38;;
29168;SDS011;16219;42.864;23.360;2022-11-02T08:44:02;5.15;;;2.28;;
29168;SDS011;16219;42.864;23.360;2022-11-02T08:46:29;2.53;;;2.25;;
29168;SDS011;16219;42.864;23.360;2022-11-02T08:48:57;5.10;;;2.38;;
29168;SDS011;16219;42.864;23.360;2022-11-02T08:51:25;2.13;;;1.75;;
29168;SDS011;16219;42.864;23.360;2022-11-02T08:53:52;3.25;;;2.15;;
29168;SDS011;16219;42.864;23.360;2022-11-02T08:56:19;4.80;;;2.83;;
29168;SDS011;16219;42.864;23.360;2022-11-02T08:58:46;2.05;;;1.80;;
29168;SDS011;16219;42.864;23.360;2022-11-02T09:01:13;2.80;;;2.60;;
29168;SDS011;16219;42.864;23.360;2022-11-02T09:03:40;2.50;;;2.30;;
29168;SDS011;16219;42.864;23.360;2022-11-02T09:06:09;3.67;;;2.67;;
29168;SDS011;16219;42.864;23.360;2022-11-02T09:08:36;2.30;;;1.42;;
29168;SDS011;16219;42.864;23.360;2022-11-02T09:11:03;4.18;;;2.63;;
29168;SDS011;16219;42.864;23.360;2022-11-02T09:13:31;2.38;;;2.17;;
29168;SDS011;16219;42.864;23.360;2022-11-02T09:15:58;11.40;;;2.63;;
29168;SDS011;16219;42.864;23.360;2022-11-02T09:18:27;3.28;;;2.30;;
29168;SDS011;16219;42.864;23.360;2022-11-02T09:20:54;3.65;;;2.38;;
29168;SDS011;16219;42.864;23.360;2022-11-02T09:23:22;2.13;;;1.88;;
29168;SDS011;16219;42.864;23.360;2022-11-02T09:25:49;1.98;;;1.88;;
29168;SDS011;16219;42.864;23.360;2022-11-02T09:28:17;2.55;;;2.20;;
29168;SDS011;16219;42.864;23.360;2022-11-02T09:30:44;4.15;;;2.03;;
29168;SDS011;16219;42.864;23.360;2022-11-02T09:33:11;4.72;;;1.67;;
29168;SDS011;16219;42.864;23.360;2022-11-02T09:35:39;10.40;;;2.40;;
29168;SDS011;16219;42.864;23.360;2022-11-02T09:38:08;2.10;;;1.90;;
29168;SDS011;16219;42.864;23.360;2022-11-02T09:40:36;3.83;;;2.22;;
29168;SDS011;16219;42.864;23.360;2022-11-02T09:43:09;1.45;;;1.35;;
29168;SDS011;16219;42.864;23.360;2022-11-02T09:45:47;3.08;;;1.70;;
29168;SDS011;16219;42.864;23.360;2022-11-02T09:48:21;8.70;;;2.55;;
29168;SDS011;16219;42.864;23.360;2022-11-02T09:50:54;4.07;;;2.40;;
29168;SDS011;16219;42.864;23.360;2022-11-02T09:53:29;1.77;;;1.67;;
29168;SDS011;16219;42.864;23.360;2022-11-02T09:56:05;4.22;;;2.72;;
29168;SDS011;16219;42.864;23.360;2022-11-02T09:58:36;2.97;;;2.63;;
29168;SDS011;16219;42.864;23.360;2022-11-02T10:01:08;5.15;;;1.85;;
29168;SDS011;16219;42.864;23.360;2022-11-02T10:03:49;3.45;;;1.75;;
29168;SDS011;16219;42.864;23.360;2022-11-02T10:06:33;2.13;;;1.77;;
29168;SDS011;16219;42.864;23.360;2022-11-02T10:09:04;1.60;;;1.50;;
29168;SDS011;16219;42.864;23.360;2022-11-02T10:11:43;3.30;;;1.48;;
29168;SDS011;16219;42.864;23.360;2022-11-02T10:14:19;2.80;;;1.60;;
29168;SDS011;16219;42.864;23.360;2022-11-02T10:16:51;4.20;;;2.60;;
29168;SDS011;16219;42.864;23.360;2022-11-02T10:19:24;8.60;;;1.90;;
29168;SDS011;16219;42.864;23.360;2022-11-02T10:21:54;3.65;;;1.35;;
29168;SDS011;16219;42.864;23.360;2022-11-02T10:24:23;6.70;;;3.20;;
29168;SDS011;16219;42.864;23.360;2022-11-02T10:26:55;2.22;;;1.75;;
29168;SDS011;16219;42.864;23.360;2022-11-02T10:29:28;3.33;;;2.33;;
29168;SDS011;16219;42.864;23.360;2022-11-02T10:32:06;2.13;;;1.92;;
29168;SDS011;16219;42.864;23.360;2022-11-02T10:34:35;1.95;;;1.60;;
29168;SDS011;16219;42.864;23.360;2022-11-02T10:37:08;4.70;;;2.40;;
29168;SDS011;16219;42.864;23.360;2022-11-02T10:39:50;1.67;;;1.58;;
29168;SDS011;16219;42.864;23.360;2022-11-02T10:42:37;2.42;;;1.58;;
29168;SDS011;16219;42.864;23.360;2022-11-02T10:45:22;6.85;;;1.60;;
29168;SDS011;16219;42.864;23.360;2022-11-02T10:48:12;10.00;;;2.20;;
29168;SDS011;16219;42.864;23.360;2022-11-02T10:50:47;1.55;;;1.45;;
29168;SDS011;16219;42.864;23.360;2022-11-02T10:53:20;1.20;;;1.10;;
29168;SDS011;16219;42.864;23.360;2022-11-02T10:55:50;1.35;;;1.08;;
29168;SDS011;16219;42.864;23.360;2022-11-02T10:58:26;1.15;;;1.10;;
29168;SDS011;16219;42.864;23.360;2022-11-02T11:01:05;1.73;;;1.30;;
29168;SDS011;16219;42.864;23.360;2022-11-02T11:03:42;5.57;;;2.58;;
29168;SDS011;16219;42.864;23.360;2022-11-02T11:06:19;1.75;;;1.50;;
29168;SDS011;16219;42.864;23.360;2022-11-02T11:08:46;2.72;;;1.33;;
29168;SDS011;16219;42.864;23.360;2022-11-02T11:11:23;3.40;;;1.85;;
29168;SDS011;16219;42.864;23.360;2022-11-02T11:13:54;7.15;;;2.67;;
29168;SDS011;16219;42.864;23.360;2022-11-02T11:16:31;2.30;;;2.10;;
29168;SDS011;16219;42.864;23.360;2022-11-02T11:19:01;6.75;;;3.10;;
29168;SDS011;16219;42.864;23.360;2022-11-02T11:21:36;6.85;;;1.88;;
29168;SDS011;16219;42.864;23.360;2022-11-02T11:24:17;1.85;;;1.15;;
29168;SDS011;16219;42.864;23.360;2022-11-02T11:26:58;0.80;;;0.80;;
29168;SDS011;16219;42.864;23.360;2022-11-02T11:29:31;5.35;;;2.58;;
29168;SDS011;16219;42.864;23.360;2022-11-02T11:32:00;2.58;;;1.63;;
29168;SDS011;16219;42.864;23.360;2022-11-02T11:34:29;2.35;;;2.05;;
29168;SDS011;16219;42.864;23.360;2022-11-02T11:37:05;1.02;;;1.00;;
29168;SDS011;16219;42.864;23.360;2022-11-02T11:39:35;2.80;;;1.95;;
29168;SDS011;16219;42.864;23.360;2022-11-02T11:42:12;2.60;;;1.88;;
29168;SDS011;16219;42.864;23.360;2022-11-02T11:44:50;2.20;;;1.50;;
29168;SDS011;16219;42.864;23.360;2022-11-02T11:47:25;3.10;;;1.33;;
29168;SDS011;16219;42.864;23.360;2022-11-02T11:49:55;4.57;;;2.22;;
29168;SDS011;16219;42.864;23.360;2022-11-02T11:52:27;8.40;;;2.42;;
29168;SDS011;16219;42.864;23.360;2022-11-02T11:54:56;1.80;;;1.67;;
29168;SDS011;16219;42.864;23.360;2022-11-02T11:57:25;0.82;;;0.80;;
29168;SDS011;16219;42.864;23.360;2022-11-02T11:59:57;6.03;;;1.33;;
29168;SDS011;16219;42.864;23.360;2022-11-02T12:02:27;2.03;;;1.45;;
29168;SDS011;16219;42.864;23.360;2022-11-02T12:04:59;2.00;;;1.33;;
29168;SDS011;16219;42.864;23.360;2022-11-02T12:10:30;1.65;;;1.13;;
29168;SDS011;16219;42.864;23.360;2022-11-02T12:13:11;1.77;;;1.25;;
29168;SDS011;16219;42.864;23.360;2022-11-02T12:15:53;6.35;;;1.90;;
29168;SDS011;16219;42.864;23.360;2022-11-02T12:18:34;2.53;;;1.08;;
29168;SDS011;16219;42.864;23.360;2022-11-02T12:21:18;10.05;;;2.03;;
29168;SDS011;16219;42.864;23.360;2022-11-02T12:23:56;1.27;;;1.05;;
29168;SDS011;16219;42.864;23.360;2022-11-02T12:26:36;0.43;;;0.43;;
29168;SDS011;16219;42.864;23.360;2022-11-02T12:29:23;1.23;;;1.13;;
29168;SDS011;16219;42.864;23.360;2022-11-02T12:32:22;40.92;;;2.25;;
29168;SDS011;16219;42.864;23.360;2022-11-02T12:35:04;14.90;;;1.60;;
29168;SDS011;16219;42.864;23.360;2022-11-02T12:40:23;0.50;;;0.50;;
29168;SDS011;16219;42.864;23.360;2022-11-02T12:42:56;1.30;;;1.13;;
29168;SDS011;16219;42.864;23.360;2022-11-02T12:45:38;0.63;;;0.60;;
29168;SDS011;16219;42.864;23.360;2022-11-02T12:48:15;0.70;;;0.70;;
29168;SDS011;16219;42.864;23.360;2022-11-02T12:50:52;2.33;;;1.25;;
29168;SDS011;16219;42.864;23.360;2022-11-02T12:56:05;1.20;;;0.95;;
29168;SDS011;16219;42.864;23.360;2022-11-02T12:58:38;5.82;;;1.38;;
29168;SDS011;16219;42.864;23.360;2022-11-02T13:01:08;0.52;;;0.52;;
29168;SDS011;16219;42.864;23.360;2022-11-02T13:06:15;0.75;;;0.75;;
29168;SDS011;16219;42.864;23.360;2022-11-02T13:08:48;1.27;;;1.08;;
29168;SDS011;16219;42.864;23.360;2022-11-02T13:11:20;2.53;;;1.15;;
29168;SDS011;16219;42.864;23.360;2022-11-02T13:13:53;0.50;;;0.50;;
29168;SDS011;16219;42.864;23.360;2022-11-02T13:16:24;0.22;;;0.22;;
29168;SDS011;16219;42.864;23.360;2022-11-02T13:19:01;5.38;;;1.05;;
29168;SDS011;16219;42.864;23.360;2022-11-02T13:21:31;4.97;;;1.80;;
29168;SDS011;16219;42.864;23.360;2022-11-02T13:24:01;0.45;;;0.45;;
29168;SDS011;16219;42.864;23.360;2022-11-02T13:26:30;1.75;;;1.10;;
29168;SDS011;16219;42.864;23.360;2022-11-02T13:29:03;1.77;;;1.52;;
29168;SDS011;16219;42.864;23.360;2022-11-02T13:31:38;8.73;;;0.75;;
29168;SDS011;16219;42.864;23.360;2022-11-02T13:34:12;2.40;;;1.58;;
29168;SDS011;16219;42.864;23.360;2022-11-02T13:36:43;3.38;;;1.75;;
29168;SDS011;16219;42.864;23.360;2022-11-02T13:39:12;2.08;;;1.88;;
29168;SDS011;16219;42.864;23.360;2022-11-02T13:44:50;3.13;;;2.25;;
29168;SDS011;16219;42.864;23.360;2022-11-02T13:47:37;1.05;;;1.05;;
29168;SDS011;16219;42.864;23.360;2022-11-02T13:52:49;3.67;;;2.30;;
29168;SDS011;16219;42.864;23.360;2022-11-02T13:55:22;1.77;;;1.25;;
29168;SDS011;16219;42.864;23.360;2022-11-02T13:57:52;0.88;;;0.85;;
29168;SDS011;16219;42.864;23.360;2022-11-02T14:00:27;1.48;;;1.38;;
29168;SDS011;16219;42.864;23.360;2022-11-02T14:02:57;5.10;;;1.50;;
29168;SDS011;16219;42.864;23.360;2022-11-02T14:05:34;8.43;;;1.83;;
29168;SDS011;16219;42.864;23.360;2022-11-02T14:08:06;12.05;;;3.58;;
29168;SDS011;16219;42.864;23.360;2022-11-02T14:10:37;5.65;;;1.73;;
29168;SDS011;16219;42.864;23.360;2022-11-02T14:13:10;3.03;;;2.15;;
29168;SDS011;16219;42.864;23.360;2022-11-02T14:15:39;5.15;;;1.73;;
29168;SDS011;16219;42.864;23.360;2022-11-02T14:18:12;2.15;;;1.85;;
29168;SDS011;16219;42.864;23.360;2022-11-02T14:20:56;1.80;;;1.33;;
29168;SDS011;16219;42.864;23.360;2022-11-02T14:23:37;3.60;;;1.02;;
29168;SDS011;16219;42.864;23.360;2022-11-02T14:29:02;2.43;;;1.20;;
29168;SDS011;16219;42.864;23.360;2022-11-02T14:31:39;1.55;;;1.20;;
29168;SDS011;16219;42.864;23.360;2022-11-02T14:34:30;4.20;;;1.63;;
29168;SDS011;16219;42.864;23.360;2022-11-02T14:37:19;4.15;;;1.67;;
29168;SDS011;16219;42.864;23.360;2022-11-02T14:40:06;1.63;;;1.23;;
29168;SDS011;16219;42.864;23.360;2022-11-02T14:42:56;7.35;;;2.38;;
29168;SDS011;16219;42.864;23.360;2022-11-02T14:45:37;6.25;;;1.55;;
29168;SDS011;16219;42.864;23.360;2022-11-02T14:48:21;3.50;;;1.20;;
29168;SDS011;16219;42.864;23.360;2022-11-02T14:50:56;2.67;;;2.00;;
29168;SDS011;16219;42.864;23.360;2022-11-02T14:53:28;4.07;;;2.83;;
29168;SDS011;16219;42.864;23.360;2022-11-02T14:56:00;1.77;;;1.33;;
29168;SDS011;16219;42.864;23.360;2022-11-02T14:58:28;4.43;;;2.88;;
29168;SDS011;16219;42.864;23.360;2022-11-02T15:00:59;2.42;;;1.95;;
29168;SDS011;16219;42.864;23.360;2022-11-02T15:03:30;4.38;;;1.38;;
29168;SDS011;16219;42.864;23.360;2022-11-02T15:06:01;2.25;;;1.52;;
29168;SDS011;16219;42.864;23.360;2022-11-02T15:08:33;7.22;;;2.15;;
29168;SDS011;16219;42.864;23.360;2022-11-02T15:14:02;3.28;;;2.22;;
29168;SDS011;16219;42.864;23.360;2022-11-02T15:16:53;1.13;;;1.02;;
29168;SDS011;16219;42.864;23.360;2022-11-02T15:19:36;6.25;;;2.55;;
29168;SDS011;16219;42.864;23.360;2022-11-02T15:25:11;1.85;;;1.27;;